Time;durP1;ratioP1;P1;durP2;ratioP2;P2;SDS_P1;SDS_P2;PMS_P1;PMS_P2;Temp;Humidity;BMP_temperature;BMP_pressure;BME280_temperature;BME280_humidity;BME280_pressure;Samples;Min_cycle;Max_cycle;Signal;HPM_P1;HPM_P2
2023/03/09 00:02:00;;;;;;;18.17;8.43;;;;;;;;;;6187634;23;20047;-79
2023/03/09 00:04:26;;;;;;;17.38;8.15;;;;;;;;;;6188061;23;19997;-79
2023/03/09 00:06:52;;;;;;;16.67;8.90;;;;;;;;;;6161955;23;20059;-79
2023/03/09 00:09:18;;;;;;;21.33;9.38;;;;;;;;;;6187905;23;20001;-79
2023/03/09 00:11:47;;;;;;;18.90;9.15;;;;;;;;;;6187666;23;20005;-78
2023/03/09 00:14:15;;;;;;;20.20;9.20;;;;;;;;;;6188568;23;20023;-79
2023/03/09 00:16:42;;;;;;;21.52;8.98;;;;;;;;;;6188469;23;20012;-79
2023/03/09 00:19:08;;;;;;;27.00;9.45;;;;;;;;;;6188140;23;20064;-79
2023/03/09 00:21:34;;;;;;;21.08;9.27;;;;;;;;;;6188217;23;20004;-79
2023/03/09 00:24:01;;;;;;;26.33;9.80;;;;;;;;;;6188437;23;20028;-78
2023/03/09 00:26:27;;;;;;;21.00;9.10;;;;;;;;;;6187619;23;20001;-79
2023/03/09 00:28:53;;;;;;;26.83;11.05;;;;;;;;;;6162360;23;20036;-79
2023/03/09 00:31:19;;;;;;;20.90;9.82;;;;;;;;;;6187690;23;20001;-79
2023/03/09 00:33:47;;;;;;;24.38;10.23;;;;;;;;;;6188058;23;19998;-78
2023/03/09 00:36:13;;;;;;;21.42;9.02;;;;;;;;;;6187682;23;19997;-79
2023/03/09 00:38:39;;;;;;;23.80;10.13;;;;;;;;;;6187627;23;20017;-79
2023/03/09 00:41:05;;;;;;;24.30;9.52;;;;;;;;;;6187638;23;20020;-79
2023/03/09 00:43:31;;;;;;;21.50;8.75;;;;;;;;;;6187696;23;20089;-79
2023/03/09 00:45:57;;;;;;;23.40;10.35;;;;;;;;;;6187952;23;20001;-78
2023/03/09 00:48:25;;;;;;;22.23;9.82;;;;;;;;;;6161030;23;20372;-79
2023/03/09 00:50:51;;;;;;;22.33;10.43;;;;;;;;;;6187859;23;20025;-79
2023/03/09 00:53:18;;;;;;;18.95;8.77;;;;;;;;;;6188011;23;20025;-79
2023/03/09 00:55:44;;;;;;;21.58;9.75;;;;;;;;;;6188603;23;20001;-79
2023/03/09 00:58:19;;;;;;;19.67;9.45;;;;;;;;;;6188380;23;20005;-79
2023/03/09 01:00:53;;;;;;;21.80;10.52;;;;;;;;;;6187908;23;20083;-79
2023/03/09 01:03:19;;;;;;;25.08;9.05;;;;;;;;;;6187985;23;20009;-79
2023/03/09 01:05:45;;;;;;;21.45;9.68;;;;;;;;;;6186967;23;20025;-79
2023/03/09 01:08:11;;;;;;;22.95;9.40;;;;;;;;;;6187310;23;20324;-78
2023/03/09 01:10:41;;;;;;;15.13;6.93;;;;;;;;;;6187130;23;20005;-79
2023/03/09 01:13:07;;;;;;;23.05;10.25;;;;;;;;;;6186896;23;20001;-79
2023/03/09 01:15:33;;;;;;;23.80;9.88;;;;;;;;;;6186701;23;19997;-79
2023/03/09 01:17:59;;;;;;;23.42;10.68;;;;;;;;;;6187168;23;19997;-79
2023/03/09 01:20:25;;;;;;;22.58;9.80;;;;;;;;;;6186878;23;19994;-79
2023/03/09 01:22:51;;;;;;;24.48;11.35;;;;;;;;;;6186818;23;20033;-79
2023/03/09 01:25:17;;;;;;;24.60;9.85;;;;;;;;;;6186949;23;20008;-79
2023/03/09 01:27:43;;;;;;;33.20;11.40;;;;;;;;;;6187401;23;20029;-78
2023/03/09 01:30:10;;;;;;;21.92;10.02;;;;;;;;;;6189272;23;19997;-79
2023/03/09 01:32:36;;;;;;;24.13;10.82;;;;;;;;;;6188720;23;20075;-78
2023/03/09 01:35:03;;;;;;;21.67;9.43;;;;;;;;;;6188495;23;20005;-78
2023/03/09 01:37:29;;;;;;;22.20;9.07;;;;;;;;;;6188689;23;19997;-79
2023/03/09 01:39:55;;;;;;;22.75;8.93;;;;;;;;;;6188712;23;20036;-79
2023/03/09 01:42:21;;;;;;;21.08;9.20;;;;;;;;;;6188999;23;20063;-79
2023/03/09 01:45:07;;;;;;;20.20;9.25;;;;;;;;;;6189356;23;20552;-78
2023/03/09 01:47:33;;;;;;;22.55;8.68;;;;;;;;;;6189060;23;20335;-78
2023/03/09 01:50:00;;;;;;;16.33;8.48;;;;;;;;;;6188901;23;20396;-78
2023/03/09 01:52:27;;;;;;;22.77;9.73;;;;;;;;;;6188929;23;20084;-79
2023/03/09 01:54:59;;;;;;;20.98;8.40;;;;;;;;;;6189313;23;20004;-79
2023/03/09 01:57:37;;;;;;;21.02;9.40;;;;;;;;;;6189917;23;20020;-79
2023/03/09 02:00:07;;;;;;;19.80;8.38;;;;;;;;;;6191038;23;20032;-79
2023/03/09 02:02:35;;;;;;;21.37;8.13;;;;;;;;;;6191270;23;20028;-79
2023/03/09 02:05:04;;;;;;;20.52;8.27;;;;;;;;;;6190690;23;20004;-79
2023/03/09 02:07:34;;;;;;;20.00;8.40;;;;;;;;;;6190989;23;19997;-79
2023/03/09 02:10:03;;;;;;;19.20;8.52;;;;;;;;;;6190855;23;20008;-79
2023/03/09 02:12:29;;;;;;;16.70;7.43;;;;;;;;;;6190267;23;20005;-79
2023/03/09 02:14:55;;;;;;;18.15;7.90;;;;;;;;;;6190292;23;20004;-79
2023/03/09 02:17:22;;;;;;;19.08;8.05;;;;;;;;;;6190199;23;20423;-79
2023/03/09 02:19:51;;;;;;;17.80;7.70;;;;;;;;;;6190319;23;20438;-79
2023/03/09 02:22:17;;;;;;;20.02;8.27;;;;;;;;;;6189950;23;20028;-79
2023/03/09 02:24:51;;;;;;;16.23;7.38;;;;;;;;;;6189854;23;20334;-78
2023/03/09 02:27:22;;;;;;;19.70;7.80;;;;;;;;;;6190162;23;20005;-79
2023/03/09 02:29:48;;;;;;;20.40;8.20;;;;;;;;;;6189875;23;19997;-79
2023/03/09 02:32:15;;;;;;;16.85;7.43;;;;;;;;;;6189757;23;20098;-78
2023/03/09 02:34:41;;;;;;;15.38;7.00;;;;;;;;;;6189818;23;20086;-79
2023/03/09 02:37:23;;;;;;;18.92;8.27;;;;;;;;;;6189707;23;19997;-79
2023/03/09 02:39:50;;;;;;;18.70;7.22;;;;;;;;;;6162168;23;20434;-79
2023/03/09 02:42:18;;;;;;;19.95;7.82;;;;;;;;;;6190239;23;20005;-78
2023/03/09 02:44:44;;;;;;;18.85;7.90;;;;;;;;;;6190202;23;20075;-79
2023/03/09 02:47:14;;;;;;;16.38;7.63;;;;;;;;;;6189723;23;19997;-79
2023/03/09 02:49:39;;;;;;;17.13;6.32;;;;;;;;;;6189074;23;20284;-78
2023/03/09 02:52:05;;;;;;;17.50;7.25;;;;;;;;;;6189266;23;20008;-79
2023/03/09 02:54:31;;;;;;;21.02;8.07;;;;;;;;;;6188854;23;20005;-79
2023/03/09 02:56:57;;;;;;;16.58;7.80;;;;;;;;;;6189093;23;20024;-79
2023/03/09 02:59:23;;;;;;;14.05;6.68;;;;;;;;;;6188690;23;20391;-79
2023/03/09 03:01:49;;;;;;;17.90;7.25;;;;;;;;;;6189039;23;20012;-79
2023/03/09 03:04:15;;;;;;;17.00;7.25;;;;;;;;;;6189053;23;20008;-79
2023/03/09 03:06:41;;;;;;;13.07;6.45;;;;;;;;;;6189063;23;20025;-79
2023/03/09 03:09:16;;;;;;;16.52;6.47;;;;;;;;;;6162506;23;20011;-79
2023/03/09 03:12:12;;;;;;;12.95;6.15;;;;;;;;;;6188760;23;20439;-79
2023/03/09 03:14:38;;;;;;;16.27;7.20;;;;;;;;;;6188418;23;20423;-78
2023/03/09 03:17:03;;;;;;;16.17;7.30;;;;;;;;;;6188216;23;20052;-78
2023/03/09 03:19:32;;;;;;;14.75;6.80;;;;;;;;;;6188635;23;20001;-79
2023/03/09 03:21:58;;;;;;;16.40;7.32;;;;;;;;;;6188862;23;20008;-79
2023/03/09 03:24:24;;;;;;;14.93;7.43;;;;;;;;;;6188674;23;20001;-79
2023/03/09 03:26:50;;;;;;;17.60;7.97;;;;;;;;;;6189088;23;20300;-79
2023/03/09 03:29:16;;;;;;;16.10;7.90;;;;;;;;;;6188859;23;20064;-79
2023/03/09 03:31:42;;;;;;;19.75;8.05;;;;;;;;;;6188622;23;19997;-79
2023/03/09 03:34:08;;;;;;;13.77;7.15;;;;;;;;;;6188401;23;19993;-79
2023/03/09 03:36:34;;;;;;;15.90;7.60;;;;;;;;;;6188377;23;20001;-79
2023/03/09 03:39:00;;;;;;;16.98;6.68;;;;;;;;;;6188464;23;20001;-79
2023/03/09 03:41:26;;;;;;;19.45;9.07;;;;;;;;;;6188745;23;20047;-79
2023/03/09 03:43:52;;;;;;;19.33;8.20;;;;;;;;;;6188766;23;20009;-79
2023/03/09 03:46:18;;;;;;;17.67;8.38;;;;;;;;;;6188870;23;19997;-79
2023/03/09 03:48:45;;;;;;;18.15;8.05;;;;;;;;;;6188702;23;20426;-79
2023/03/09 03:51:11;;;;;;;17.42;7.75;;;;;;;;;;6187971;23;20001;-79
2023/03/09 03:53:38;;;;;;;16.08;8.40;;;;;;;;;;6187686;23;20052;-79
2023/03/09 03:56:04;;;;;;;12.63;5.60;;;;;;;;;;6187918;23;20022;-79
2023/03/09 03:58:30;;;;;;;17.80;7.53;;;;;;;;;;6188038;23;20063;-79
2023/03/09 04:00:56;;;;;;;17.63;8.57;;;;;;;;;;6188240;23;20001;-79
2023/03/09 04:03:23;;;;;;;16.17;8.05;;;;;;;;;;6188624;23;20028;-78
2023/03/09 04:05:49;;;;;;;16.50;7.18;;;;;;;;;;6188134;23;20001;-79
2023/03/09 04:08:15;;;;;;;16.20;8.02;;;;;;;;;;6187880;23;20012;-79
2023/03/09 04:10:41;;;;;;;16.33;7.38;;;;;;;;;;6187850;23;20324;-79
2023/03/09 04:13:07;;;;;;;18.17;7.75;;;;;;;;;;6186653;23;20003;-77
2023/03/09 04:15:33;;;;;;;18.92;8.80;;;;;;;;;;6186892;23;20442;-77
2023/03/09 04:17:59;;;;;;;20.70;8.95;;;;;;;;;;6160140;23;19997;-77
2023/03/09 04:20:26;;;;;;;18.63;8.32;;;;;;;;;;6186614;23;20663;-77
2023/03/09 04:22:52;;;;;;;20.10;9.00;;;;;;;;;;6186498;23;20423;-77
2023/03/09 04:25:18;;;;;;;16.85;7.55;;;;;;;;;;6186481;23;20004;-77
2023/03/09 04:27:44;;;;;;;15.10;7.35;;;;;;;;;;6186704;23;20001;-77
2023/03/09 04:30:10;;;;;;;19.20;7.82;;;;;;;;;;6186316;23;20407;-77
2023/03/09 04:32:36;;;;;;;19.40;8.93;;;;;;;;;;6186115;23;20005;-77
2023/03/09 04:35:24;;;;;;;13.93;6.90;;;;;;;;;;6186830;23;20001;-77
2023/03/09 04:37:51;;;;;;;19.42;8.00;;;;;;;;;;6186394;23;20435;-77
2023/03/09 04:40:18;;;;;;;15.95;6.03;;;;;;;;;;6186732;23;20001;-77
2023/03/09 04:42:44;;;;;;;12.55;5.80;;;;;;;;;;6186297;23;20076;-77
2023/03/09 04:45:10;;;;;;;16.90;7.03;;;;;;;;;;6159917;23;20096;-77
2023/03/09 04:47:37;;;;;;;16.80;6.88;;;;;;;;;;6159932;23;20316;-77
2023/03/09 04:50:03;;;;;;;20.45;8.68;;;;;;;;;;6186320;23;20036;-77
2023/03/09 04:52:29;;;;;;;20.02;8.15;;;;;;;;;;6186619;23;20305;-77
2023/03/09 04:54:55;;;;;;;24.23;9.27;;;;;;;;;;6186388;23;19993;-77
2023/03/09 04:57:21;;;;;;;18.00;8.48;;;;;;;;;;6185988;23;20020;-77
2023/03/09 04:59:47;;;;;;;21.17;8.45;;;;;;;;;;6186531;23;20004;-77
2023/03/09 05:02:13;;;;;;;20.42;8.68;;;;;;;;;;6186750;23;20001;-77
2023/03/09 05:04:39;;;;;;;19.52;7.97;;;;;;;;;;6186438;23;20001;-77
2023/03/09 05:07:05;;;;;;;18.90;8.63;;;;;;;;;;6186425;23;20292;-77
2023/03/09 05:09:31;;;;;;;14.85;6.85;;;;;;;;;;6159901;23;20001;-77
2023/03/09 05:11:57;;;;;;;25.52;8.95;;;;;;;;;;6186190;23;20083;-77
2023/03/09 05:14:23;;;;;;;19.85;9.35;;;;;;;;;;6186030;23;20333;-77
2023/03/09 05:16:53;;;;;;;22.38;9.05;;;;;;;;;;6187386;23;20001;-77
2023/03/09 05:19:38;;;;;;;17.25;7.45;;;;;;;;;;6187266;23;20032;-77
2023/03/09 05:22:04;;;;;;;18.33;7.45;;;;;;;;;;6185983;23;20013;-78
2023/03/09 05:24:31;;;;;;;21.23;8.32;;;;;;;;;;6186067;23;20005;-78
2023/03/09 05:26:57;;;;;;;21.08;9.88;;;;;;;;;;6186071;23;19997;-78
2023/03/09 05:29:23;;;;;;;20.35;8.45;;;;;;;;;;6185773;23;20084;-77
2023/03/09 05:31:49;;;;;;;19.10;8.90;;;;;;;;;;6185450;23;20029;-78
2023/03/09 05:34:15;;;;;;;25.25;10.73;;;;;;;;;;6183960;23;20523;-77
2023/03/09 05:36:41;;;;;;;22.27;9.40;;;;;;;;;;6183420;23;20479;-78
2023/03/09 05:39:07;;;;;;;25.42;10.45;;;;;;;;;;6183169;23;20008;-76
2023/03/09 05:41:33;;;;;;;24.83;10.02;;;;;;;;;;6182920;23;20349;-76
2023/03/09 05:44:00;;;;;;;27.55;10.77;;;;;;;;;;6183090;23;20016;-76
2023/03/09 05:46:26;;;;;;;19.98;8.32;;;;;;;;;;6182207;23;20001;-76
2023/03/09 05:48:52;;;;;;;25.05;10.38;;;;;;;;;;6181830;23;20439;-76
2023/03/09 05:51:18;;;;;;;23.55;9.88;;;;;;;;;;6182389;23;20427;-76
2023/03/09 05:53:44;;;;;;;24.00;9.50;;;;;;;;;;6182453;23;20327;-76
2023/03/09 05:56:10;;;;;;;24.63;10.52;;;;;;;;;;6182297;23;20016;-76
2023/03/09 05:58:36;;;;;;;17.50;8.25;;;;;;;;;;6182724;23;20055;-76
2023/03/09 06:01:02;;;;;;;26.08;11.20;;;;;;;;;;6182406;23;20001;-76
2023/03/09 06:03:28;;;;;;;20.60;9.93;;;;;;;;;;6183033;23;20009;-76
2023/03/09 06:05:58;;;;;;;24.00;10.10;;;;;;;;;;6182174;23;20009;-75
2023/03/09 06:08:25;;;;;;;25.17;9.98;;;;;;;;;;6182768;23;20000;-75
2023/03/09 06:10:51;;;;;;;26.40;10.27;;;;;;;;;;6183526;23;20001;-75
2023/03/09 06:13:17;;;;;;;24.60;10.52;;;;;;;;;;6182691;23;20080;-75
2023/03/09 06:15:43;;;;;;;25.40;10.65;;;;;;;;;;6183641;23;20001;-75
2023/03/09 06:18:09;;;;;;;22.92;10.50;;;;;;;;;;6185342;23;20028;-75
2023/03/09 06:20:35;;;;;;;25.92;11.02;;;;;;;;;;6184810;23;20323;-75
2023/03/09 06:23:01;;;;;;;27.25;11.00;;;;;;;;;;6184726;23;20135;-75
2023/03/09 06:25:27;;;;;;;23.42;11.05;;;;;;;;;;6185008;23;20005;-75
2023/03/09 06:27:53;;;;;;;24.85;9.90;;;;;;;;;;6184748;23;20008;-76
2023/03/09 06:30:19;;;;;;;28.80;10.98;;;;;;;;;;6185031;23;20001;-75
2023/03/09 06:32:45;;;;;;;23.90;10.90;;;;;;;;;;6184467;23;20390;-75
2023/03/09 06:35:11;;;;;;;28.88;12.68;;;;;;;;;;6185014;23;20449;-75
2023/03/09 06:37:37;;;;;;;27.67;12.00;;;;;;;;;;6184552;23;20004;-75
2023/03/09 06:40:04;;;;;;;33.78;13.40;;;;;;;;;;6184955;23;20005;-76
2023/03/09 06:42:30;;;;;;;28.60;11.75;;;;;;;;;;6184561;23;20484;-76
2023/03/09 06:44:56;;;;;;;36.80;13.98;;;;;;;;;;6184296;23;20001;-76
2023/03/09 06:47:22;;;;;;;37.92;15.18;;;;;;;;;;6184510;23;20030;-75
2023/03/09 06:49:48;;;;;;;40.15;15.38;;;;;;;;;;6184424;23;20462;-75
2023/03/09 06:52:14;;;;;;;35.92;14.52;;;;;;;;;;6184222;23;20036;-75
2023/03/09 06:54:40;;;;;;;35.20;14.27;;;;;;;;;;6184268;23;20032;-75
2023/03/09 06:57:06;;;;;;;34.25;14.45;;;;;;;;;;6184379;23;20061;-76
2023/03/09 06:59:32;;;;;;;34.83;15.52;;;;;;;;;;6183992;23;20494;-76
2023/03/09 07:01:58;;;;;;;38.15;17.95;;;;;;;;;;6184180;23;20033;-76
2023/03/09 07:04:24;;;;;;;34.70;15.73;;;;;;;;;;6183357;23;20007;-76
2023/03/09 07:06:50;;;;;;;33.70;14.40;;;;;;;;;;6183848;23;20075;-76
2023/03/09 07:09:16;;;;;;;25.58;11.20;;;;;;;;;;6157670;23;20363;-76
2023/03/09 07:11:42;;;;;;;24.58;11.02;;;;;;;;;;6183750;23;20005;-76
2023/03/09 07:14:08;;;;;;;21.00;7.75;;;;;;;;;;6183148;23;20001;-76
2023/03/09 07:16:34;;;;;;;26.15;11.52;;;;;;;;;;6183950;23;20177;-76
2023/03/09 07:19:00;;;;;;;27.45;11.93;;;;;;;;;;6183800;23;20029;-76
2023/03/09 07:21:26;;;;;;;25.00;10.27;;;;;;;;;;6184136;23;20048;-76
2023/03/09 07:23:52;;;;;;;29.42;11.93;;;;;;;;;;6182991;23;20556;-76
2023/03/09 07:26:20;;;;;;;24.77;11.40;;;;;;;;;;6183946;23;20001;-76
2023/03/09 07:28:47;;;;;;;27.90;11.10;;;;;;;;;;6155436;23;20016;-76
2023/03/09 07:31:13;;;;;;;25.60;11.70;;;;;;;;;;6181780;23;20355;-76
2023/03/09 07:33:39;;;;;;;28.17;12.38;;;;;;;;;;6182081;23;19997;-76
2023/03/09 07:36:06;;;;;;;25.13;11.15;;;;;;;;;;6181765;23;20051;-76
2023/03/09 07:38:32;;;;;;;23.88;11.80;;;;;;;;;;6181257;23;20000;-76
2023/03/09 07:40:59;;;;;;;25.80;10.43;;;;;;;;;;6181608;23;20001;-76
2023/03/09 07:43:25;;;;;;;35.47;13.60;;;;;;;;;;6183022;23;20005;-76
2023/03/09 07:45:51;;;;;;;35.78;12.73;;;;;;;;;;6183314;23;20004;-76
2023/03/09 07:48:17;;;;;;;39.28;15.32;;;;;;;;;;6183901;23;20029;-76
2023/03/09 07:50:43;;;;;;;43.05;16.88;;;;;;;;;;6183807;23;20001;-76
2023/03/09 07:53:09;;;;;;;39.10;14.88;;;;;;;;;;6156288;23;20016;-76
2023/03/09 07:55:36;;;;;;;32.00;13.02;;;;;;;;;;6182407;23;20001;-76
2023/03/09 07:58:02;;;;;;;28.48;12.48;;;;;;;;;;6183339;23;20340;-76
2023/03/09 08:00:28;;;;;;;28.42;11.95;;;;;;;;;;6181624;23;20012;-76
2023/03/09 08:02:56;;;;;;;24.02;10.63;;;;;;;;;;6183998;23;20005;-76
2023/03/09 08:05:22;;;;;;;25.40;11.85;;;;;;;;;;6183638;23;20001;-76
2023/03/09 08:07:49;;;;;;;27.25;11.82;;;;;;;;;;6179788;23;19997;-76
2023/03/09 08:10:16;;;;;;;22.60;11.20;;;;;;;;;;6180768;23;20036;-76
2023/03/09 08:12:43;;;;;;;27.45;13.07;;;;;;;;;;6179854;23;20444;-76
2023/03/09 08:15:09;;;;;;;29.30;11.88;;;;;;;;;;6179622;23;20450;-76
2023/03/09 08:17:35;;;;;;;24.15;11.10;;;;;;;;;;6179669;23;20371;-76
2023/03/09 08:20:02;;;;;;;20.63;10.00;;;;;;;;;;6179846;23;20001;-76
2023/03/09 08:22:28;;;;;;;20.70;10.02;;;;;;;;;;6179136;23;20016;-76
2023/03/09 08:24:54;;;;;;;22.63;10.05;;;;;;;;;;6179995;23;20005;-76
2023/03/09 08:27:20;;;;;;;18.85;8.98;;;;;;;;;;6179881;23;20003;-76
2023/03/09 08:29:46;;;;;;;19.05;9.23;;;;;;;;;;6153465;23;20005;-76
2023/03/09 08:32:13;;;;;;;19.30;9.82;;;;;;;;;;6180390;23;20005;-75
2023/03/09 08:34:39;;;;;;;21.05;9.85;;;;;;;;;;6180609;23;20001;-76
2023/03/09 08:37:05;;;;;;;14.20;7.28;;;;;;;;;;6180290;23;20001;-76
2023/03/09 08:39:31;;;;;;;19.17;9.10;;;;;;;;;;6179219;23;20001;-77
2023/03/09 08:41:57;;;;;;;15.88;7.60;;;;;;;;;;6179601;23;20009;-76
2023/03/09 08:44:23;;;;;;;16.10;7.95;;;;;;;;;;6179336;23;20001;-76
2023/03/09 08:46:49;;;;;;;17.70;8.50;;;;;;;;;;6179244;23;20029;-77
2023/03/09 08:49:15;;;;;;;17.10;7.97;;;;;;;;;;6178103;23;20009;-76
2023/03/09 08:51:41;;;;;;;16.33;8.38;;;;;;;;;;6179636;23;20428;-76
2023/03/09 08:54:07;;;;;;;13.43;6.55;;;;;;;;;;6178033;23;20005;-76
2023/03/09 08:56:33;;;;;;;15.80;8.80;;;;;;;;;;6179971;23;20051;-76
2023/03/09 08:58:59;;;;;;;12.93;7.00;;;;;;;;;;6179527;23;20086;-77
2023/03/09 09:01:25;;;;;;;10.15;5.80;;;;;;;;;;6179488;23;20012;-77
2023/03/09 09:03:51;;;;;;;14.02;7.63;;;;;;;;;;6178051;23;20338;-77
2023/03/09 09:06:17;;;;;;;13.18;7.68;;;;;;;;;;6179422;23;19997;-76
2023/03/09 09:08:44;;;;;;;10.10;5.63;;;;;;;;;;6179814;23;20001;-77
2023/03/09 09:11:11;;;;;;;10.70;6.70;;;;;;;;;;6178073;23;20586;-76
2023/03/09 09:13:37;;;;;;;10.60;6.40;;;;;;;;;;6151751;23;20004;-76
2023/03/09 09:16:05;;;;;;;9.48;6.05;;;;;;;;;;6179256;23;20001;-76
2023/03/09 09:18:32;;;;;;;10.70;6.50;;;;;;;;;;6179789;23;20002;-76
2023/03/09 09:20:58;;;;;;;11.85;7.50;;;;;;;;;;6179924;23;20001;-77
2023/03/09 09:23:24;;;;;;;14.30;8.05;;;;;;;;;;6179759;23;20323;-76
2023/03/09 09:25:56;;;;;;;10.45;6.18;;;;;;;;;;6179125;23;19998;-76
2023/03/09 09:28:23;;;;;;;9.70;5.97;;;;;;;;;;6179498;23;20715;-76
2023/03/09 09:30:56;;;;;;;9.10;5.53;;;;;;;;;;6179374;23;20009;-77
2023/03/09 09:33:23;;;;;;;11.10;6.00;;;;;;;;;;6179056;23;19997;-77
2023/03/09 09:36:02;;;;;;;8.65;5.70;;;;;;;;;;6179537;23;19997;-77
2023/03/09 09:38:29;;;;;;;9.40;5.57;;;;;;;;;;6179656;23;20008;-76
2023/03/09 09:40:55;;;;;;;10.15;5.63;;;;;;;;;;6179379;23;20004;-77
2023/03/09 09:43:22;;;;;;;8.25;4.80;;;;;;;;;;6180062;23;20371;-76
2023/03/09 09:45:49;;;;;;;8.77;5.13;;;;;;;;;;6179634;23;20008;-77
2023/03/09 09:48:17;;;;;;;9.73;5.63;;;;;;;;;;6179170;23;20080;-76
2023/03/09 09:50:52;;;;;;;12.07;5.80;;;;;;;;;;6180560;23;20009;-77
2023/03/09 09:53:54;;;;;;;11.65;7.03;;;;;;;;;;6180999;23;20064;-76
2023/03/09 09:56:22;;;;;;;8.75;5.43;;;;;;;;;;6067963;23;20015;-76
2023/03/09 09:58:48;;;;;;;10.38;6.10;;;;;;;;;;6164360;23;20388;-77
2023/03/09 10:01:22;;;;;;;10.88;5.43;;;;;;;;;;6181710;23;20434;-76
2023/03/09 10:03:51;;;;;;;8.40;5.00;;;;;;;;;;6180965;23;20005;-77
2023/03/09 10:06:18;;;;;;;12.30;6.15;;;;;;;;;;6181605;23;20004;-76
2023/03/09 10:08:53;;;;;;;9.38;5.85;;;;;;;;;;6181173;23;20427;-76
2023/03/09 10:11:19;;;;;;;10.77;5.10;;;;;;;;;;6181541;23;20339;-77
2023/03/09 10:13:48;;;;;;;9.40;5.45;;;;;;;;;;6180854;23;20498;-76
2023/03/09 10:16:17;;;;;;;9.15;5.90;;;;;;;;;;6180538;23;19997;-76
2023/03/09 10:18:47;;;;;;;9.57;5.85;;;;;;;;;;6184307;23;20302;-76
2023/03/09 10:21:29;;;;;;;9.60;5.93;;;;;;;;;;6184420;23;20001;-76
2023/03/09 10:23:58;;;;;;;11.43;6.32;;;;;;;;;;6184327;23;20347;-76
2023/03/09 10:26:44;;;;;;;13.63;6.72;;;;;;;;;;6179343;23;20057;-77
2023/03/09 10:29:16;;;;;;;10.85;5.97;;;;;;;;;;6181219;23;20001;-76
2023/03/09 10:31:51;;;;;;;6.22;3.97;;;;;;;;;;6180552;23;20158;-77
2023/03/09 10:34:24;;;;;;;10.60;6.68;;;;;;;;;;6179448;23;20032;-77
2023/03/09 10:37:04;;;;;;;10.35;6.30;;;;;;;;;;6179438;23;20004;-77
2023/03/09 10:39:34;;;;;;;10.85;6.22;;;;;;;;;;6178814;23;20011;-77
2023/03/09 10:42:11;;;;;;;9.20;5.85;;;;;;;;;;6178759;23;20048;-77
2023/03/09 10:44:37;;;;;;;9.55;5.85;;;;;;;;;;6178387;23;20002;-77
2023/03/09 10:47:03;;;;;;;9.85;5.75;;;;;;;;;;6177994;23;20001;-77
2023/03/09 10:49:29;;;;;;;9.13;5.20;;;;;;;;;;6180796;23;20331;-77
2023/03/09 10:52:00;;;;;;;5.72;4.30;;;;;;;;;;6180033;23;19997;-77
2023/03/09 10:54:29;;;;;;;9.68;5.20;;;;;;;;;;6183229;23;20008;-77
2023/03/09 10:56:55;;;;;;;10.70;5.95;;;;;;;;;;6183797;23;20629;-77
2023/03/09 10:59:22;;;;;;;8.57;5.72;;;;;;;;;;6184291;23;20025;-77
2023/03/09 11:01:50;;;;;;;9.55;6.38;;;;;;;;;;6157451;23;20008;-77
2023/03/09 11:04:22;;;;;;;8.88;5.80;;;;;;;;;;6184266;23;20078;-76
2023/03/09 11:06:52;;;;;;;10.30;5.30;;;;;;;;;;6184119;23;20064;-77
2023/03/09 11:09:24;;;;;;;7.80;5.43;;;;;;;;;;6183725;23;20012;-77
2023/03/09 11:11:50;;;;;;;8.35;4.90;;;;;;;;;;6183975;23;20005;-77
2023/03/09 11:14:19;;;;;;;9.57;5.60;;;;;;;;;;6183416;23;19997;-76
2023/03/09 11:16:53;;;;;;;6.32;4.47;;;;;;;;;;6184265;23;19998;-77
2023/03/09 11:19:19;;;;;;;10.10;6.05;;;;;;;;;;6157024;23;20387;-77
2023/03/09 11:21:51;;;;;;;10.90;6.15;;;;;;;;;;6183816;23;20032;-77
2023/03/09 11:24:17;;;;;;;10.90;6.18;;;;;;;;;;6183910;23;20001;-77
2023/03/09 11:26:46;;;;;;;10.05;6.20;;;;;;;;;;6183986;23;20032;-77
2023/03/09 11:29:22;;;;;;;10.57;6.40;;;;;;;;;;6183627;23;20001;-77
2023/03/09 11:31:48;;;;;;;10.07;6.65;;;;;;;;;;6184473;23;20076;-77
2023/03/09 11:34:16;;;;;;;9.32;5.78;;;;;;;;;;6183861;23;20037;-76
2023/03/09 11:36:43;;;;;;;11.82;6.85;;;;;;;;;;6183682;23;20005;-77
2023/03/09 11:39:29;;;;;;;9.95;6.70;;;;;;;;;;6183928;23;20012;-77
2023/03/09 11:41:57;;;;;;;8.38;5.28;;;;;;;;;;6183536;23;20005;-77
2023/03/09 11:44:30;;;;;;;8.13;5.68;;;;;;;;;;6183250;23;20001;-77
2023/03/09 11:46:58;;;;;;;9.07;5.78;;;;;;;;;;6183430;23;20378;-77
2023/03/09 11:49:26;;;;;;;10.02;6.22;;;;;;;;;;6183426;23;20080;-77
2023/03/09 11:51:53;;;;;;;8.75;5.05;;;;;;;;;;6183644;23;19997;-77
2023/03/09 11:54:25;;;;;;;8.32;5.03;;;;;;;;;;6183441;23;20424;-77
2023/03/09 11:56:52;;;;;;;8.90;5.25;;;;;;;;;;6183153;23;20013;-77
2023/03/09 11:59:20;;;;;;;9.38;5.43;;;;;;;;;;6183397;23;20331;-77
2023/03/09 12:01:59;;;;;;;8.43;4.38;;;;;;;;;;6183074;23;20001;-77
2023/03/09 12:04:26;;;;;;;8.55;5.40;;;;;;;;;;6183491;23;20048;-77
2023/03/09 12:06:54;;;;;;;9.45;5.25;;;;;;;;;;6183821;23;20005;-77
2023/03/09 12:09:27;;;;;;;9.57;5.78;;;;;;;;;;6183496;23;20001;-77
2023/03/09 12:11:58;;;;;;;7.75;4.53;;;;;;;;;;6183991;23;20343;-78
2023/03/09 12:14:28;;;;;;;6.45;4.25;;;;;;;;;;6183151;23;19997;-77
2023/03/09 12:16:56;;;;;;;7.53;4.88;;;;;;;;;;6183721;23;20001;-77
2023/03/09 12:19:24;;;;;;;8.35;5.88;;;;;;;;;;6183381;23;20004;-77
2023/03/09 12:22:02;;;;;;;8.68;5.70;;;;;;;;;;6183776;23;20534;-76
2023/03/09 12:24:35;;;;;;;9.10;5.68;;;;;;;;;;6183397;23;20434;-77
2023/03/09 12:27:04;;;;;;;9.18;5.03;;;;;;;;;;6183299;23;20009;-77
2023/03/09 12:29:33;;;;;;;10.50;6.13;;;;;;;;;;6183497;23;20008;-77
2023/03/09 12:32:20;;;;;;;7.53;4.70;;;;;;;;;;6183044;23;20004;-77
2023/03/09 12:34:46;;;;;;;8.82;5.38;;;;;;;;;;6183299;23;20005;-77
2023/03/09 12:37:28;;;;;;;6.03;4.15;;;;;;;;;;6183488;23;20004;-78
2023/03/09 12:40:04;;;;;;;6.00;4.50;;;;;;;;;;6183602;23;20005;-77
2023/03/09 12:42:37;;;;;;;6.88;4.60;;;;;;;;;;6183348;23;20371;-77
2023/03/09 12:45:14;;;;;;;6.15;4.28;;;;;;;;;;6183328;23;20005;-77
2023/03/09 12:47:45;;;;;;;8.10;4.88;;;;;;;;;;6183775;23;20443;-76
2023/03/09 12:50:20;;;;;;;8.23;5.13;;;;;;;;;;6183477;23;20004;-77
2023/03/09 12:52:55;;;;;;;9.75;5.10;;;;;;;;;;6183344;23;20029;-76
2023/03/09 12:55:23;;;;;;;8.00;5.15;;;;;;;;;;6183200;23;20009;-76
2023/03/09 12:57:49;;;;;;;8.25;5.40;;;;;;;;;;6183038;23;20379;-77
2023/03/09 13:00:18;;;;;;;7.88;5.05;;;;;;;;;;6183185;23;20008;-76
2023/03/09 13:02:49;;;;;;;6.70;4.72;;;;;;;;;;6183083;23;20055;-76
2023/03/09 13:05:24;;;;;;;8.15;5.10;;;;;;;;;;6182988;23;20051;-76
2023/03/09 13:08:05;;;;;;;7.43;4.80;;;;;;;;;;6183309;23;19997;-77
2023/03/09 13:10:33;;;;;;;8.02;5.10;;;;;;;;;;6183173;23;20020;-77
2023/03/09 13:13:18;;;;;;;7.28;4.22;;;;;;;;;;6183033;23;20005;-76
2023/03/09 13:15:44;;;;;;;7.00;4.22;;;;;;;;;;6183080;23;20003;-77
2023/03/09 13:18:26;;;;;;;7.43;5.00;;;;;;;;;;6183092;23;20001;-77
2023/03/09 13:20:52;;;;;;;8.40;4.95;;;;;;;;;;6182783;23;20027;-77
2023/03/09 13:23:20;;;;;;;11.95;5.75;;;;;;;;;;6183090;23;20001;-76
2023/03/09 13:25:47;;;;;;;9.27;4.95;;;;;;;;;;6184640;23;20222;-77
2023/03/09 13:28:14;;;;;;;7.47;5.07;;;;;;;;;;6185287;23;20003;-77
2023/03/09 13:30:43;;;;;;;8.07;4.32;;;;;;;;;;6185111;23;19997;-77
2023/03/09 13:33:20;;;;;;;8.98;4.63;;;;;;;;;;6184882;23;20508;-77
2023/03/09 13:35:51;;;;;;;7.93;5.07;;;;;;;;;;6184424;23;20019;-77
2023/03/09 13:38:22;;;;;;;6.82;4.13;;;;;;;;;;6185251;23;20032;-77
2023/03/09 13:40:50;;;;;;;7.80;4.43;;;;;;;;;;6184788;23;20072;-77
2023/03/09 13:43:20;;;;;;;10.02;5.07;;;;;;;;;;6183753;23;20009;-77
2023/03/09 13:45:57;;;;;;;8.70;5.20;;;;;;;;;;6184246;23;20072;-77
2023/03/09 13:48:23;;;;;;;8.07;5.25;;;;;;;;;;6184665;23;20029;-77
2023/03/09 13:50:49;;;;;;;6.90;4.30;;;;;;;;;;6184752;23;20001;-77
2023/03/09 13:53:15;;;;;;;6.70;4.80;;;;;;;;;;6184719;23;20005;-77
2023/03/09 13:55:53;;;;;;;6.57;3.90;;;;;;;;;;6181285;23;20008;-77
2023/03/09 13:58:21;;;;;;;8.07;5.28;;;;;;;;;;6180397;23;20092;-77
2023/03/09 14:01:01;;;;;;;7.70;5.20;;;;;;;;;;6181063;23;20064;-77
2023/03/09 14:03:29;;;;;;;10.00;4.68;;;;;;;;;;6153573;23;20025;-77
2023/03/09 14:06:03;;;;;;;8.93;4.97;;;;;;;;;;6182071;23;20024;-77
2023/03/09 14:08:34;;;;;;;6.88;4.05;;;;;;;;;;6184437;23;20445;-77
2023/03/09 14:11:04;;;;;;;9.00;5.45;;;;;;;;;;6183856;23;20002;-77
2023/03/09 14:13:30;;;;;;;8.95;5.15;;;;;;;;;;6184519;23;20029;-77
2023/03/09 14:15:56;;;;;;;9.25;5.10;;;;;;;;;;6184173;23;20451;-77
2023/03/09 14:18:41;;;;;;;8.52;5.03;;;;;;;;;;6184841;23;20009;-77
2023/03/09 14:21:18;;;;;;;9.98;6.05;;;;;;;;;;6184644;23;20080;-77
2023/03/09 14:23:44;;;;;;;8.10;5.03;;;;;;;;;;6158062;23;20012;-76
2023/03/09 14:26:10;;;;;;;8.60;5.45;;;;;;;;;;6184700;23;20372;-76
2023/03/09 14:28:40;;;;;;;12.50;6.32;;;;;;;;;;6184205;23;19993;-77
2023/03/09 14:31:24;;;;;;;9.57;5.72;;;;;;;;;;6184269;23;20001;-76
2023/03/09 14:33:56;;;;;;;10.05;6.00;;;;;;;;;;6184468;23;20052;-76
2023/03/09 14:36:22;;;;;;;9.18;5.10;;;;;;;;;;6183962;23;20001;-76
2023/03/09 14:38:51;;;;;;;8.88;6.00;;;;;;;;;;6184449;23;20486;-76